Terminal Aerodrome Forecast
Issued by NWS Cleveland, OH

Home | Current Version | Previous Version | Graphics & Text | Print | Product List | Glossary On
Versions: 1 2 3 4 5 6 7 8 9 10 11 12 13 14 15 16 17 18 19
000
FTUS41 KCLE 141700
TAFYNG
TAF
KYNG 141739Z 1418/1518 21016G25KT P6SM VCSH SCT025 OVC040
      TEMPO 1420/1424 3SM -SHRA BR SCT015 OVC025
     FM150100 25012G20KT P6SM VCSH SCT015 OVC025
     FM150600 33012KT 3SM -SHRA BR SCT006 OVC012
     FM151000 33015G25KT 2SM -SN OVC006
     FM151700 32015G25KT 4SM -SHSN SCT006 OVC012=

USA.gov is the U.S. government's official web portal to all federal, state and local government web resources and services.